Seguin's Hourly Summary for Tuesday, August 25, 2026
Hour Temp
(f)
RH
(%)
Solar Rad.
(MJ/m2)
Rainfall
(in)
Wind
(mph)
Battery
(volts)
8/25/2026 12:00 AM 81 66 0 0 2.13 0
8/25/2026 1:00 AM 79 77 0 0 0 0
8/25/2026 2:00 AM 79 80 0 0 0 0
8/25/2026 3:00 AM 77 84 0 0 0 0
8/25/2026 4:00 AM 73 86 0 0 0 0
8/25/2026 5:00 AM 72 89 0 0 0 0
8/25/2026 6:00 AM 69 91 0 0 0 0
8/25/2026 7:00 AM 68 91 0 0 0 0
8/25/2026 8:00 AM 72 81 0.05 0 0 0
8/25/2026 9:00 AM 79 72 0.29 0 3.17 0
8/25/2026 10:00 AM 83 62 0.49 0 2.64 0
8/25/2026 11:00 AM 86 46 0.63 0 4.45 0
8/25/2026 12:00 PM 91 31 0.75 0 0.12 0
8/25/2026 1:00 PM 94 31 0.81 0 5.54 0
8/25/2026 2:00 PM 96 27 0.82 0 5.81 0
8/25/2026 3:00 PM 98 26 0.76 0 3.03 0
8/25/2026 4:00 PM 99 25 0.66 0 5.22 0
8/25/2026 5:00 PM 100 27 0.5 0 0.14 0
8/25/2026 6:00 PM 99 27 0.33 0 0.07 0
8/25/2026 7:00 PM 98 31 0.15 0 4.61 0
8/25/2026 8:00 PM 95 38 0 0 0.62 0
8/25/2026 9:00 PM 92 49 0 0 3.62 0
8/25/2026 10:00 PM 88 54 0 0 7.35 0
8/25/2026 11:00 PM 85 63 0 0 5.11 0
Data Summary 85 56 6.24 0.00 2.23 0.00